Huvudsida
METAR-TAF:

METAR-TAF

Flygplatser :

Kalmar Öland Airport

Kalmar, Sverige

latitud: 56-44N, longitud: 016-18E, höjd: 16 m

Aktuellt väderrapport

Denna rapport gjordes för 44 minuter sedan, klockan 19:50 UTC
Vind 5 kt från syd
Temperatur 2°C
Fuktighet 80%
Tryck 1013 hPa
Sikt 10 km eller mer

METAR: ESMQ 231950Z AUTO 18005KT 9999 FEW083/// 02/M01 Q1013

Tid: 22:34 (20:34 UTC)

Väderprognos

Denna rapport gjordes för 6 timmar och 4 minuter sedan, klockan 14:30 UTC
Prognos gäller från 23 kl. 15 UTC till 23 kl. 19 UTC
Vind 12 kt från syd/sydväst
Sikt 10 km eller mer
Inga moln under 1 500 m eller inga cumulonimbus
Sannolikhet 40%
från 23 kl. 15 UTC till 23 kl. 17 UTC
Spridda moln på en höjd av 5000 ft, Cumulonimbus.

TAF: ESMQ 231430Z 2315/2319 20012KT CAVOK PROB40 2315/2317 SCT050CB

Aktuella väderrapporter och prognoser från 4000 flygplatser (METAR- och TAF-rapporter).

De tillgängliga stationerna syns som gula och röda prickar på kartan.

För musen över prickarna för att se namnen på stationerna.

Klicka sedan för att få väderrapporter och prognoser.

För att ändra kartan: Klicka på de gröna knapparna med ett svart kors på för att zooma in; den gröna knappen med ett streck på för att zooma ut; eller på de gröna pilarna för angränsande kartor.


METAR-TAF: